Terminal Aerodrome Forecast
Issued by NWS

Home | Current Version | Previous Version | Text Only | Print | Product List | Glossary On
Versions: 1 2 3 4 5 6 7 8 9 10 11 12 13 14 15 16 17 18 19 20 21 22 23 24
000
FTUS43 KLSX 020000 AAA
TAFSUS
TAF AMD
KSUS 020042Z 0201/0224 14008KT P6SM VCTS SCT060CB BKN250
     FM020330 17006KT 4SM SHRA VCTS OVC035CB
      TEMPO 0204/0206 2SM TSRA OVC030CB
     FM021200 14007KT P6SM BKN040 OVC080=

USA.gov is the U.S. government's official web portal to all federal, state and local government web resources and services.